Main page
METAR-TAF:

METAR-TAF

Airports :

Namangan Airport

Namangan, Uzbekistan

latitude: 40-59-04N, longitude: 071-33-24E, elevation: 474 m

Current weather observation

The report was made 22 minutes ago, at 08:30 UTC
Wind 4 kt from the South/Southeast, varying between Southeast and Southwest
Temperature 21°C
Humidity 33%
Pressure 1017 hPa
Visibility 10 km or more

METAR: UTFN 030830Z 16004KT 130V220 9999 NSC 21/04 Q1017 R28/CLRD70 NOSIG

Time: 13:52 (08:52 UTC)

Forecast

The report was made 3 hours and 52 minutes ago, at 05:00 UTC
Forecast valid from 03 at 06 UTC to 04 at 06 UTC
Wind 10 kt from the North/Northwest
Visibility 10 km or more
Temporary
from 03 at 06 UTC to 03 at 12 UTC
Wind 12 kt from the Southeast
Visibility: 7000 m
Few clouds at a height of 5000 ft, Cumulonimbus.
Scattered clouds at a height of 10000 ft

TAF: UTFN 030500Z 0306/0406 34010KT 9999 NSC TEMPO 0306/0312 14012KT 7000 FEW050CB SCT100

Weather observations and forecasts of more than 4000 airports (METAR and TAF reports).

The available stations are represented by yellow and red dots on the map.

Hover mouse over dot to see the name of the station.

Then click to see weather observations and forecasts.

To change the map : click on the green buttons with a black cross to zoom in, on the green button with a dash to zoom out, or on the green arrows for adjacent maps.


METAR-TAF: